sensor_id;sensor_type;location;lat;lon;timestamp;P1;durP1;ratioP1;P2;durP2;ratioP2
28547;SDS011;68292;49.600;8.746;2023-09-12T00:01:37;6.35;;;5.63;;
28547;SDS011;68292;49.600;8.746;2023-09-12T00:04:06;10.75;;;6.55;;
28547;SDS011;68292;49.600;8.746;2023-09-12T00:06:35;10.20;;;6.82;;
28547;SDS011;68292;49.600;8.746;2023-09-12T00:09:04;9.07;;;6.25;;
28547;SDS011;68292;49.600;8.746;2023-09-12T00:11:33;9.18;;;6.50;;
28547;SDS011;68292;49.600;8.746;2023-09-12T00:14:03;10.52;;;6.32;;
28547;SDS011;68292;49.600;8.746;2023-09-12T00:16:34;8.68;;;5.97;;
28547;SDS011;68292;49.600;8.746;2023-09-12T00:19:03;7.55;;;6.07;;
28547;SDS011;68292;49.600;8.746;2023-09-12T00:21:32;9.20;;;6.38;;
28547;SDS011;68292;49.600;8.746;2023-09-12T00:24:01;8.98;;;5.80;;
28547;SDS011;68292;49.600;8.746;2023-09-12T00:26:30;8.45;;;6.43;;
28547;SDS011;68292;49.600;8.746;2023-09-12T00:28:59;7.72;;;6.13;;
28547;SDS011;68292;49.600;8.746;2023-09-12T00:31:30;10.30;;;6.60;;
28547;SDS011;68292;49.600;8.746;2023-09-12T00:33:59;12.80;;;6.72;;
28547;SDS011;68292;49.600;8.746;2023-09-12T00:36:28;14.27;;;6.30;;
28547;SDS011;68292;49.600;8.746;2023-09-12T00:38:56;11.55;;;6.60;;
28547;SDS011;68292;49.600;8.746;2023-09-12T00:41:25;11.38;;;6.47;;
28547;SDS011;68292;49.600;8.746;2023-09-12T00:43:53;11.30;;;6.68;;
28547;SDS011;68292;49.600;8.746;2023-09-12T00:46:22;10.77;;;6.25;;
28547;SDS011;68292;49.600;8.746;2023-09-12T00:48:53;10.77;;;7.13;;
28547;SDS011;68292;49.600;8.746;2023-09-12T00:51:24;10.48;;;6.78;;
28547;SDS011;68292;49.600;8.746;2023-09-12T00:53:55;7.82;;;5.95;;
28547;SDS011;68292;49.600;8.746;2023-09-12T00:56:24;9.35;;;6.68;;
28547;SDS011;68292;49.600;8.746;2023-09-12T00:58:53;7.82;;;6.40;;
28547;SDS011;68292;49.600;8.746;2023-09-12T01:01:23;15.57;;;7.20;;
28547;SDS011;68292;49.600;8.746;2023-09-12T01:03:54;9.60;;;6.55;;
28547;SDS011;68292;49.600;8.746;2023-09-12T01:06:24;6.88;;;5.88;;
28547;SDS011;68292;49.600;8.746;2023-09-12T01:08:54;11.32;;;6.45;;
28547;SDS011;68292;49.600;8.746;2023-09-12T01:11:24;9.68;;;6.28;;
28547;SDS011;68292;49.600;8.746;2023-09-12T01:13:53;10.43;;;6.95;;
28547;SDS011;68292;49.600;8.746;2023-09-12T01:16:22;9.00;;;6.75;;
28547;SDS011;68292;49.600;8.746;2023-09-12T01:18:50;11.65;;;6.85;;
28547;SDS011;68292;49.600;8.746;2023-09-12T01:21:28;8.32;;;6.40;;
28547;SDS011;68292;49.600;8.746;2023-09-12T01:24:33;11.95;;;6.45;;
28547;SDS011;68292;49.600;8.746;2023-09-12T01:27:37;9.38;;;6.53;;
28547;SDS011;68292;49.600;8.746;2023-09-12T01:30:09;9.95;;;5.95;;
28547;SDS011;68292;49.600;8.746;2023-09-12T01:32:40;8.60;;;6.13;;
28547;SDS011;68292;49.600;8.746;2023-09-12T01:35:10;7.15;;;6.43;;
28547;SDS011;68292;49.600;8.746;2023-09-12T01:37:39;13.30;;;6.35;;
28547;SDS011;68292;49.600;8.746;2023-09-12T01:40:08;9.23;;;6.57;;
28547;SDS011;68292;49.600;8.746;2023-09-12T01:42:40;9.55;;;6.43;;
28547;SDS011;68292;49.600;8.746;2023-09-12T01:45:13;9.75;;;6.35;;
28547;SDS011;68292;49.600;8.746;2023-09-12T01:47:50;11.00;;;6.53;;
28547;SDS011;68292;49.600;8.746;2023-09-12T01:50:19;7.25;;;6.55;;
28547;SDS011;68292;49.600;8.746;2023-09-12T01:52:49;9.85;;;6.15;;
28547;SDS011;68292;49.600;8.746;2023-09-12T01:55:17;9.18;;;6.60;;
28547;SDS011;68292;49.600;8.746;2023-09-12T01:57:48;11.35;;;6.38;;
28547;SDS011;68292;49.600;8.746;2023-09-12T02:00:17;9.68;;;6.35;;
28547;SDS011;68292;49.600;8.746;2023-09-12T02:02:47;13.07;;;7.40;;
28547;SDS011;68292;49.600;8.746;2023-09-12T02:05:16;7.45;;;6.13;;
28547;SDS011;68292;49.600;8.746;2023-09-12T02:07:49;10.00;;;6.72;;
28547;SDS011;68292;49.600;8.746;2023-09-12T02:10:18;8.32;;;6.28;;
28547;SDS011;68292;49.600;8.746;2023-09-12T02:12:49;10.30;;;6.78;;
28547;SDS011;68292;49.600;8.746;2023-09-12T02:15:17;9.32;;;6.22;;
28547;SDS011;68292;49.600;8.746;2023-09-12T02:17:46;10.38;;;6.32;;
28547;SDS011;68292;49.600;8.746;2023-09-12T02:20:17;7.05;;;6.32;;
28547;SDS011;68292;49.600;8.746;2023-09-12T02:22:47;10.10;;;6.25;;
28547;SDS011;68292;49.600;8.746;2023-09-12T02:25:17;10.25;;;6.38;;
28547;SDS011;68292;49.600;8.746;2023-09-12T02:27:48;11.48;;;7.13;;
28547;SDS011;68292;49.600;8.746;2023-09-12T02:30:17;11.13;;;6.47;;
28547;SDS011;68292;49.600;8.746;2023-09-12T02:32:46;8.20;;;6.35;;
28547;SDS011;68292;49.600;8.746;2023-09-12T02:35:15;10.15;;;6.25;;
28547;SDS011;68292;49.600;8.746;2023-09-12T02:37:44;9.90;;;7.28;;
28547;SDS011;68292;49.600;8.746;2023-09-12T02:40:12;9.88;;;6.35;;
28547;SDS011;68292;49.600;8.746;2023-09-12T02:42:42;9.38;;;6.50;;
28547;SDS011;68292;49.600;8.746;2023-09-12T02:45:12;12.80;;;6.57;;
28547;SDS011;68292;49.600;8.746;2023-09-12T02:47:41;9.13;;;5.75;;
28547;SDS011;68292;49.600;8.746;2023-09-12T02:50:10;7.28;;;6.05;;
28547;SDS011;68292;49.600;8.746;2023-09-12T02:52:39;12.18;;;6.63;;
28547;SDS011;68292;49.600;8.746;2023-09-12T02:55:08;8.77;;;6.28;;
28547;SDS011;68292;49.600;8.746;2023-09-12T02:57:37;6.90;;;5.57;;
28547;SDS011;68292;49.600;8.746;2023-09-12T03:00:08;8.55;;;6.28;;
28547;SDS011;68292;49.600;8.746;2023-09-12T03:02:41;8.55;;;6.50;;
28547;SDS011;68292;49.600;8.746;2023-09-12T03:05:10;7.20;;;5.97;;
28547;SDS011;68292;49.600;8.746;2023-09-12T03:07:39;6.30;;;5.50;;
28547;SDS011;68292;49.600;8.746;2023-09-12T03:10:08;6.93;;;5.93;;
28547;SDS011;68292;49.600;8.746;2023-09-12T03:12:37;7.82;;;6.03;;
28547;SDS011;68292;49.600;8.746;2023-09-12T03:15:06;11.50;;;6.53;;
28547;SDS011;68292;49.600;8.746;2023-09-12T03:17:37;8.88;;;6.50;;
28547;SDS011;68292;49.600;8.746;2023-09-12T03:20:08;7.35;;;6.40;;
28547;SDS011;68292;49.600;8.746;2023-09-12T03:22:39;10.25;;;6.32;;
28547;SDS011;68292;49.600;8.746;2023-09-12T03:25:08;7.47;;;6.47;;
28547;SDS011;68292;49.600;8.746;2023-09-12T03:27:37;12.75;;;6.38;;
28547;SDS011;68292;49.600;8.746;2023-09-12T03:30:06;8.32;;;6.80;;
28547;SDS011;68292;49.600;8.746;2023-09-12T03:32:37;8.07;;;6.15;;
28547;SDS011;68292;49.600;8.746;2023-09-12T03:35:08;9.15;;;6.72;;
28547;SDS011;68292;49.600;8.746;2023-09-12T03:37:36;9.43;;;6.68;;
28547;SDS011;68292;49.600;8.746;2023-09-12T03:40:07;11.57;;;6.65;;
28547;SDS011;68292;49.600;8.746;2023-09-12T03:42:38;7.13;;;5.82;;
28547;SDS011;68292;49.600;8.746;2023-09-12T03:45:10;6.85;;;5.75;;
28547;SDS011;68292;49.600;8.746;2023-09-12T03:47:39;9.93;;;6.28;;
28547;SDS011;68292;49.600;8.746;2023-09-12T03:50:11;7.68;;;5.70;;
28547;SDS011;68292;49.600;8.746;2023-09-12T03:52:39;6.75;;;5.88;;
28547;SDS011;68292;49.600;8.746;2023-09-12T03:55:08;7.25;;;6.03;;
28547;SDS011;68292;49.600;8.746;2023-09-12T03:57:38;8.57;;;6.00;;
28547;SDS011;68292;49.600;8.746;2023-09-12T04:00:07;10.10;;;6.20;;
28547;SDS011;68292;49.600;8.746;2023-09-12T04:02:42;11.02;;;6.57;;
28547;SDS011;68292;49.600;8.746;2023-09-12T04:05:13;7.75;;;6.05;;
28547;SDS011;68292;49.600;8.746;2023-09-12T04:07:42;10.77;;;6.65;;
28547;SDS011;68292;49.600;8.746;2023-09-12T04:10:11;7.55;;;5.72;;
28547;SDS011;68292;49.600;8.746;2023-09-12T04:12:40;8.38;;;6.05;;
28547;SDS011;68292;49.600;8.746;2023-09-12T04:15:12;12.15;;;6.68;;
28547;SDS011;68292;49.600;8.746;2023-09-12T04:17:41;9.77;;;6.15;;
28547;SDS011;68292;49.600;8.746;2023-09-12T04:20:10;12.75;;;6.75;;
28547;SDS011;68292;49.600;8.746;2023-09-12T04:22:42;9.18;;;6.05;;
28547;SDS011;68292;49.600;8.746;2023-09-12T04:25:11;9.05;;;5.80;;
28547;SDS011;68292;49.600;8.746;2023-09-12T04:27:41;6.95;;;5.72;;
28547;SDS011;68292;49.600;8.746;2023-09-12T04:30:10;8.50;;;6.10;;
28547;SDS011;68292;49.600;8.746;2023-09-12T04:32:40;7.43;;;6.28;;
28547;SDS011;68292;49.600;8.746;2023-09-12T04:35:09;11.50;;;6.72;;
28547;SDS011;68292;49.600;8.746;2023-09-12T04:37:39;16.63;;;6.60;;
28547;SDS011;68292;49.600;8.746;2023-09-12T04:40:09;10.13;;;6.20;;
28547;SDS011;68292;49.600;8.746;2023-09-12T04:42:38;8.10;;;5.63;;
28547;SDS011;68292;49.600;8.746;2023-09-12T04:45:07;8.52;;;6.50;;
28547;SDS011;68292;49.600;8.746;2023-09-12T04:47:37;7.85;;;6.35;;
28547;SDS011;68292;49.600;8.746;2023-09-12T04:50:06;8.93;;;6.40;;
28547;SDS011;68292;49.600;8.746;2023-09-12T04:52:39;9.88;;;7.00;;
28547;SDS011;68292;49.600;8.746;2023-09-12T04:55:09;8.63;;;6.57;;
28547;SDS011;68292;49.600;8.746;2023-09-12T04:57:38;7.80;;;5.68;;
28547;SDS011;68292;49.600;8.746;2023-09-12T05:00:09;10.05;;;5.93;;
28547;SDS011;68292;49.600;8.746;2023-09-12T05:02:39;8.98;;;5.95;;
28547;SDS011;68292;49.600;8.746;2023-09-12T05:05:08;9.93;;;6.53;;
28547;SDS011;68292;49.600;8.746;2023-09-12T05:07:37;6.97;;;5.85;;
28547;SDS011;68292;49.600;8.746;2023-09-12T05:10:07;6.72;;;5.72;;
28547;SDS011;68292;49.600;8.746;2023-09-12T05:12:36;13.00;;;6.50;;
28547;SDS011;68292;49.600;8.746;2023-09-12T05:15:05;7.57;;;5.93;;
28547;SDS011;68292;49.600;8.746;2023-09-12T05:17:35;8.35;;;6.65;;
28547;SDS011;68292;49.600;8.746;2023-09-12T05:20:05;9.77;;;6.80;;
28547;SDS011;68292;49.600;8.746;2023-09-12T05:22:35;14.48;;;6.47;;
28547;SDS011;68292;49.600;8.746;2023-09-12T05:25:06;9.85;;;6.57;;
28547;SDS011;68292;49.600;8.746;2023-09-12T05:27:35;8.52;;;6.05;;
28547;SDS011;68292;49.600;8.746;2023-09-12T05:30:05;12.82;;;6.20;;
28547;SDS011;68292;49.600;8.746;2023-09-12T05:32:35;8.25;;;6.07;;
28547;SDS011;68292;49.600;8.746;2023-09-12T05:35:04;10.63;;;6.15;;
28547;SDS011;68292;49.600;8.746;2023-09-12T05:37:49;7.53;;;6.32;;
28547;SDS011;68292;49.600;8.746;2023-09-12T05:40:19;8.65;;;6.45;;
28547;SDS011;68292;49.600;8.746;2023-09-12T05:42:49;6.53;;;5.90;;
28547;SDS011;68292;49.600;8.746;2023-09-12T05:45:17;8.18;;;6.55;;
28547;SDS011;68292;49.600;8.746;2023-09-12T05:47:47;7.38;;;6.30;;
28547;SDS011;68292;49.600;8.746;2023-09-12T05:50:17;7.82;;;6.50;;
28547;SDS011;68292;49.600;8.746;2023-09-12T05:52:46;7.45;;;6.60;;
28547;SDS011;68292;49.600;8.746;2023-09-12T05:55:15;12.02;;;6.07;;
28547;SDS011;68292;49.600;8.746;2023-09-12T05:57:46;13.13;;;6.45;;
28547;SDS011;68292;49.600;8.746;2023-09-12T06:00:20;6.93;;;5.93;;
28547;SDS011;68292;49.600;8.746;2023-09-12T06:02:49;12.57;;;6.78;;
28547;SDS011;68292;49.600;8.746;2023-09-12T06:05:18;8.23;;;6.65;;
28547;SDS011;68292;49.600;8.746;2023-09-12T06:07:47;10.77;;;7.00;;
28547;SDS011;68292;49.600;8.746;2023-09-12T06:10:15;8.95;;;6.63;;
28547;SDS011;68292;49.600;8.746;2023-09-12T06:12:46;8.90;;;6.40;;
28547;SDS011;68292;49.600;8.746;2023-09-12T06:15:16;9.48;;;6.80;;
28547;SDS011;68292;49.600;8.746;2023-09-12T06:17:45;9.23;;;6.82;;
28547;SDS011;68292;49.600;8.746;2023-09-12T06:20:14;14.07;;;6.97;;
28547;SDS011;68292;49.600;8.746;2023-09-12T06:22:43;8.95;;;7.18;;
28547;SDS011;68292;49.600;8.746;2023-09-12T06:25:11;7.85;;;6.97;;
28547;SDS011;68292;49.600;8.746;2023-09-12T06:27:40;10.98;;;6.03;;
28547;SDS011;68292;49.600;8.746;2023-09-12T06:30:11;8.88;;;6.70;;
28547;SDS011;68292;49.600;8.746;2023-09-12T06:32:41;9.65;;;7.28;;
28547;SDS011;68292;49.600;8.746;2023-09-12T06:35:11;10.07;;;6.90;;
28547;SDS011;68292;49.600;8.746;2023-09-12T06:37:39;13.02;;;6.57;;
28547;SDS011;68292;49.600;8.746;2023-09-12T06:40:08;8.73;;;6.72;;
28547;SDS011;68292;49.600;8.746;2023-09-12T06:42:38;8.32;;;7.22;;
28547;SDS011;68292;49.600;8.746;2023-09-12T06:45:07;9.02;;;7.00;;
28547;SDS011;68292;49.600;8.746;2023-09-12T06:47:38;10.00;;;7.00;;
28547;SDS011;68292;49.600;8.746;2023-09-12T06:50:07;14.68;;;7.47;;
28547;SDS011;68292;49.600;8.746;2023-09-12T06:52:45;15.50;;;7.03;;
28547;SDS011;68292;49.600;8.746;2023-09-12T06:55:13;13.00;;;7.22;;
28547;SDS011;68292;49.600;8.746;2023-09-12T06:57:42;8.65;;;7.28;;
28547;SDS011;68292;49.600;8.746;2023-09-12T07:00:12;11.20;;;8.02;;
28547;SDS011;68292;49.600;8.746;2023-09-12T07:02:44;10.05;;;7.47;;
28547;SDS011;68292;49.600;8.746;2023-09-12T07:05:13;8.50;;;6.57;;
28547;SDS011;68292;49.600;8.746;2023-09-12T07:07:42;7.47;;;6.28;;
28547;SDS011;68292;49.600;8.746;2023-09-12T07:10:11;14.65;;;7.40;;
28547;SDS011;68292;49.600;8.746;2023-09-12T07:12:50;11.70;;;7.60;;
28547;SDS011;68292;49.600;8.746;2023-09-12T07:15:20;8.85;;;6.40;;
28547;SDS011;68292;49.600;8.746;2023-09-12T07:17:51;7.82;;;6.47;;
28547;SDS011;68292;49.600;8.746;2023-09-12T07:20:20;10.23;;;6.82;;
28547;SDS011;68292;49.600;8.746;2023-09-12T07:22:48;10.52;;;6.88;;
28547;SDS011;68292;49.600;8.746;2023-09-12T07:25:17;9.68;;;6.72;;
28547;SDS011;68292;49.600;8.746;2023-09-12T07:27:47;7.05;;;6.03;;
28547;SDS011;68292;49.600;8.746;2023-09-12T07:30:16;11.55;;;6.68;;
28547;SDS011;68292;49.600;8.746;2023-09-12T07:32:48;7.38;;;6.60;;
28547;SDS011;68292;49.600;8.746;2023-09-12T07:35:21;10.93;;;6.90;;
28547;SDS011;68292;49.600;8.746;2023-09-12T07:37:50;9.65;;;6.80;;
28547;SDS011;68292;49.600;8.746;2023-09-12T07:40:21;7.95;;;6.35;;
28547;SDS011;68292;49.600;8.746;2023-09-12T07:42:50;7.63;;;6.68;;
28547;SDS011;68292;49.600;8.746;2023-09-12T07:45:19;9.07;;;5.95;;
28547;SDS011;68292;49.600;8.746;2023-09-12T07:47:48;10.23;;;6.35;;
28547;SDS011;68292;49.600;8.746;2023-09-12T07:50:19;7.80;;;6.20;;
28547;SDS011;68292;49.600;8.746;2023-09-12T07:52:47;12.60;;;6.57;;
28547;SDS011;68292;49.600;8.746;2023-09-12T07:55:16;8.82;;;6.35;;
28547;SDS011;68292;49.600;8.746;2023-09-12T07:57:45;10.32;;;7.28;;
28547;SDS011;68292;49.600;8.746;2023-09-12T08:00:14;13.13;;;6.88;;
28547;SDS011;68292;49.600;8.746;2023-09-12T08:02:43;10.73;;;6.72;;
28547;SDS011;68292;49.600;8.746;2023-09-12T08:05:12;9.05;;;6.35;;
28547;SDS011;68292;49.600;8.746;2023-09-12T08:07:42;12.00;;;7.05;;
28547;SDS011;68292;49.600;8.746;2023-09-12T08:10:11;14.48;;;6.75;;
28547;SDS011;68292;49.600;8.746;2023-09-12T08:12:40;16.77;;;7.90;;
28547;SDS011;68292;49.600;8.746;2023-09-12T08:15:09;12.43;;;7.63;;
28547;SDS011;68292;49.600;8.746;2023-09-12T08:17:38;13.57;;;7.20;;
28547;SDS011;68292;49.600;8.746;2023-09-12T08:20:07;13.30;;;6.88;;
28547;SDS011;68292;49.600;8.746;2023-09-12T08:22:37;9.15;;;7.65;;
28547;SDS011;68292;49.600;8.746;2023-09-12T08:25:08;11.80;;;6.88;;
28547;SDS011;68292;49.600;8.746;2023-09-12T08:27:39;12.07;;;7.05;;
28547;SDS011;68292;49.600;8.746;2023-09-12T08:30:09;9.90;;;6.68;;
28547;SDS011;68292;49.600;8.746;2023-09-12T08:32:40;9.50;;;7.35;;
28547;SDS011;68292;49.600;8.746;2023-09-12T08:35:11;10.75;;;7.50;;
28547;SDS011;68292;49.600;8.746;2023-09-12T08:37:40;9.30;;;7.35;;
28547;SDS011;68292;49.600;8.746;2023-09-12T08:40:11;10.35;;;7.40;;
28547;SDS011;68292;49.600;8.746;2023-09-12T08:42:40;10.35;;;7.55;;
28547;SDS011;68292;49.600;8.746;2023-09-12T08:45:11;10.35;;;7.22;;
28547;SDS011;68292;49.600;8.746;2023-09-12T08:47:43;10.60;;;7.45;;
28547;SDS011;68292;49.600;8.746;2023-09-12T08:50:14;13.15;;;7.10;;
28547;SDS011;68292;49.600;8.746;2023-09-12T08:52:44;11.88;;;7.50;;
28547;SDS011;68292;49.600;8.746;2023-09-12T08:55:34;12.93;;;7.07;;
28547;SDS011;68292;49.600;8.746;2023-09-12T08:58:04;8.15;;;7.38;;
28547;SDS011;68292;49.600;8.746;2023-09-12T09:00:34;8.10;;;7.28;;
28547;SDS011;68292;49.600;8.746;2023-09-12T09:03:04;8.65;;;7.40;;
28547;SDS011;68292;49.600;8.746;2023-09-12T09:05:34;11.93;;;7.28;;
28547;SDS011;68292;49.600;8.746;2023-09-12T09:08:05;14.07;;;7.28;;
28547;SDS011;68292;49.600;8.746;2023-09-12T09:10:37;10.82;;;7.18;;
28547;SDS011;68292;49.600;8.746;2023-09-12T09:13:16;14.05;;;7.43;;
28547;SDS011;68292;49.600;8.746;2023-09-12T09:15:46;8.65;;;7.85;;
28547;SDS011;68292;49.600;8.746;2023-09-12T09:18:14;11.02;;;7.13;;
28547;SDS011;68292;49.600;8.746;2023-09-12T09:20:44;10.70;;;7.80;;
28547;SDS011;68292;49.600;8.746;2023-09-12T09:23:16;10.30;;;7.30;;
28547;SDS011;68292;49.600;8.746;2023-09-12T09:25:51;10.20;;;7.45;;
28547;SDS011;68292;49.600;8.746;2023-09-12T09:28:20;9.55;;;8.05;;
28547;SDS011;68292;49.600;8.746;2023-09-12T09:30:51;9.90;;;7.90;;
28547;SDS011;68292;49.600;8.746;2023-09-12T09:33:22;8.20;;;7.35;;
28547;SDS011;68292;49.600;8.746;2023-09-12T09:35:51;11.95;;;7.20;;
28547;SDS011;68292;49.600;8.746;2023-09-12T09:38:32;9.13;;;8.30;;
28547;SDS011;68292;49.600;8.746;2023-09-12T09:41:07;10.88;;;8.30;;
28547;SDS011;68292;49.600;8.746;2023-09-12T09:43:35;9.45;;;8.55;;
28547;SDS011;68292;49.600;8.746;2023-09-12T09:46:04;12.07;;;9.15;;
28547;SDS011;68292;49.600;8.746;2023-09-12T09:48:33;10.27;;;9.05;;
28547;SDS011;68292;49.600;8.746;2023-09-12T09:51:03;10.88;;;9.80;;
28547;SDS011;68292;49.600;8.746;2023-09-12T09:53:32;10.18;;;8.98;;
28547;SDS011;68292;49.600;8.746;2023-09-12T09:56:09;10.65;;;9.40;;
28547;SDS011;68292;49.600;8.746;2023-09-12T09:58:46;10.13;;;9.23;;
28547;SDS011;68292;49.600;8.746;2023-09-12T10:01:17;10.85;;;9.77;;
28547;SDS011;68292;49.600;8.746;2023-09-12T10:03:47;11.15;;;9.90;;
28547;SDS011;68292;49.600;8.746;2023-09-12T10:06:17;10.05;;;9.10;;
28547;SDS011;68292;49.600;8.746;2023-09-12T10:08:49;9.25;;;8.45;;
28547;SDS011;68292;49.600;8.746;2023-09-12T10:11:22;9.57;;;8.65;;
28547;SDS011;68292;49.600;8.746;2023-09-12T10:13:53;8.63;;;7.82;;
28547;SDS011;68292;49.600;8.746;2023-09-12T10:16:23;9.00;;;7.88;;
28547;SDS011;68292;49.600;8.746;2023-09-12T10:18:56;9.38;;;8.35;;
28547;SDS011;68292;49.600;8.746;2023-09-12T10:21:29;9.68;;;8.68;;
28547;SDS011;68292;49.600;8.746;2023-09-12T10:23:59;8.95;;;8.15;;
28547;SDS011;68292;49.600;8.746;2023-09-12T10:26:32;9.35;;;8.35;;
28547;SDS011;68292;49.600;8.746;2023-09-12T10:29:03;8.50;;;7.78;;
28547;SDS011;68292;49.600;8.746;2023-09-12T10:31:32;11.05;;;8.23;;
28547;SDS011;68292;49.600;8.746;2023-09-12T10:34:02;8.63;;;7.93;;
28547;SDS011;68292;49.600;8.746;2023-09-12T10:36:36;8.68;;;7.85;;
28547;SDS011;68292;49.600;8.746;2023-09-12T10:39:08;14.25;;;8.68;;
28547;SDS011;68292;49.600;8.746;2023-09-12T10:41:40;8.82;;;8.02;;
28547;SDS011;68292;49.600;8.746;2023-09-12T10:44:09;8.10;;;7.20;;
28547;SDS011;68292;49.600;8.746;2023-09-12T10:46:41;11.23;;;7.70;;
28547;SDS011;68292;49.600;8.746;2023-09-12T10:49:12;11.35;;;8.23;;
28547;SDS011;68292;49.600;8.746;2023-09-12T10:51:43;8.88;;;7.97;;
28547;SDS011;68292;49.600;8.746;2023-09-12T10:54:14;8.77;;;8.07;;
28547;SDS011;68292;49.600;8.746;2023-09-12T10:57:03;7.78;;;7.07;;
28547;SDS011;68292;49.600;8.746;2023-09-12T10:59:32;13.40;;;8.23;;
28547;SDS011;68292;49.600;8.746;2023-09-12T11:04:57;10.77;;;8.48;;
28547;SDS011;68292;49.600;8.746;2023-09-12T11:07:30;9.07;;;8.02;;
28547;SDS011;68292;49.600;8.746;2023-09-12T11:10:15;8.85;;;7.97;;
28547;SDS011;68292;49.600;8.746;2023-09-12T11:12:50;10.15;;;8.27;;
28547;SDS011;68292;49.600;8.746;2023-09-12T11:15:20;11.13;;;8.52;;
28547;SDS011;68292;49.600;8.746;2023-09-12T11:17:59;14.55;;;8.55;;
28547;SDS011;68292;49.600;8.746;2023-09-12T11:20:55;9.30;;;8.52;;
28547;SDS011;68292;49.600;8.746;2023-09-12T11:23:30;9.38;;;8.40;;
28547;SDS011;68292;49.600;8.746;2023-09-12T11:26:04;11.90;;;9.10;;
28547;SDS011;68292;49.600;8.746;2023-09-12T11:28:36;9.43;;;8.35;;
28547;SDS011;68292;49.600;8.746;2023-09-12T11:31:05;17.45;;;9.13;;
28547;SDS011;68292;49.600;8.746;2023-09-12T11:33:34;10.82;;;8.82;;
28547;SDS011;68292;49.600;8.746;2023-09-12T11:36:04;10.02;;;9.02;;
28547;SDS011;68292;49.600;8.746;2023-09-12T11:38:37;9.75;;;8.95;;
28547;SDS011;68292;49.600;8.746;2023-09-12T11:41:06;10.07;;;9.18;;
28547;SDS011;68292;49.600;8.746;2023-09-12T11:43:36;9.98;;;8.98;;
28547;SDS011;68292;49.600;8.746;2023-09-12T11:46:06;11.45;;;8.38;;
28547;SDS011;68292;49.600;8.746;2023-09-12T11:48:36;9.88;;;8.98;;
28547;SDS011;68292;49.600;8.746;2023-09-12T11:51:07;9.50;;;8.63;;
28547;SDS011;68292;49.600;8.746;2023-09-12T11:53:37;10.52;;;9.50;;
28547;SDS011;68292;49.600;8.746;2023-09-12T11:56:06;9.63;;;8.32;;
28547;SDS011;68292;49.600;8.746;2023-09-12T11:58:36;12.65;;;10.10;;
28547;SDS011;68292;49.600;8.746;2023-09-12T12:01:05;10.40;;;9.40;;
28547;SDS011;68292;49.600;8.746;2023-09-12T12:03:34;11.77;;;9.05;;
28547;SDS011;68292;49.600;8.746;2023-09-12T12:06:03;11.20;;;9.32;;
28547;SDS011;68292;49.600;8.746;2023-09-12T12:08:33;11.23;;;9.52;;
28547;SDS011;68292;49.600;8.746;2023-09-12T12:11:03;10.25;;;9.13;;
28547;SDS011;68292;49.600;8.746;2023-09-12T12:13:32;10.52;;;9.52;;
28547;SDS011;68292;49.600;8.746;2023-09-12T12:16:15;9.75;;;8.75;;
28547;SDS011;68292;49.600;8.746;2023-09-12T12:18:44;16.15;;;9.93;;
28547;SDS011;68292;49.600;8.746;2023-09-12T12:21:13;10.93;;;9.75;;
28547;SDS011;68292;49.600;8.746;2023-09-12T12:23:42;10.18;;;9.18;;
28547;SDS011;68292;49.600;8.746;2023-09-12T12:26:11;10.07;;;9.10;;
28547;SDS011;68292;49.600;8.746;2023-09-12T12:28:40;9.73;;;8.73;;
28547;SDS011;68292;49.600;8.746;2023-09-12T12:31:09;9.88;;;8.88;;
28547;SDS011;68292;49.600;8.746;2023-09-12T12:33:40;9.23;;;8.38;;
28547;SDS011;68292;49.600;8.746;2023-09-12T12:36:40;9.88;;;8.95;;
28547;SDS011;68292;49.600;8.746;2023-09-12T12:39:23;10.43;;;9.10;;
28547;SDS011;68292;49.600;8.746;2023-09-12T12:41:52;10.45;;;8.60;;
28547;SDS011;68292;49.600;8.746;2023-09-12T12:44:22;9.80;;;8.82;;
28547;SDS011;68292;49.600;8.746;2023-09-12T12:47:03;10.60;;;9.43;;
28547;SDS011;68292;49.600;8.746;2023-09-12T12:49:37;10.52;;;9.40;;
28547;SDS011;68292;49.600;8.746;2023-09-12T12:52:09;10.57;;;9.00;;
28547;SDS011;68292;49.600;8.746;2023-09-12T12:54:38;10.00;;;9.10;;
28547;SDS011;68292;49.600;8.746;2023-09-12T12:57:10;11.13;;;9.57;;
28547;SDS011;68292;49.600;8.746;2023-09-12T12:59:44;12.35;;;9.07;;
28547;SDS011;68292;49.600;8.746;2023-09-12T13:02:14;12.40;;;9.35;;
28547;SDS011;68292;49.600;8.746;2023-09-12T13:04:44;10.95;;;8.82;;
28547;SDS011;68292;49.600;8.746;2023-09-12T13:07:13;10.20;;;9.07;;
28547;SDS011;68292;49.600;8.746;2023-09-12T13:09:42;11.52;;;9.35;;
28547;SDS011;68292;49.600;8.746;2023-09-12T13:12:14;10.05;;;9.25;;
28547;SDS011;68292;49.600;8.746;2023-09-12T13:14:45;10.50;;;9.45;;
28547;SDS011;68292;49.600;8.746;2023-09-12T13:17:14;10.57;;;9.55;;
28547;SDS011;68292;49.600;8.746;2023-09-12T13:19:42;9.48;;;8.45;;
28547;SDS011;68292;49.600;8.746;2023-09-12T13:22:13;10.63;;;9.52;;
28547;SDS011;68292;49.600;8.746;2023-09-12T13:24:41;9.02;;;8.18;;
28547;SDS011;68292;49.600;8.746;2023-09-12T13:27:11;9.75;;;8.85;;
28547;SDS011;68292;49.600;8.746;2023-09-12T13:29:39;10.38;;;9.45;;
28547;SDS011;68292;49.600;8.746;2023-09-12T13:32:09;10.38;;;8.35;;
28547;SDS011;68292;49.600;8.746;2023-09-12T13:34:39;10.50;;;9.43;;
28547;SDS011;68292;49.600;8.746;2023-09-12T13:37:09;10.00;;;9.00;;
28547;SDS011;68292;49.600;8.746;2023-09-12T13:39:39;10.35;;;9.38;;
28547;SDS011;68292;49.600;8.746;2023-09-12T13:42:08;9.70;;;8.90;;
28547;SDS011;68292;49.600;8.746;2023-09-12T13:44:36;9.57;;;8.60;;
28547;SDS011;68292;49.600;8.746;2023-09-12T13:47:05;10.98;;;8.98;;
28547;SDS011;68292;49.600;8.746;2023-09-12T13:49:34;9.23;;;8.32;;
28547;SDS011;68292;49.600;8.746;2023-09-12T13:52:03;17.38;;;9.45;;
28547;SDS011;68292;49.600;8.746;2023-09-12T13:54:34;9.27;;;8.38;;
28547;SDS011;68292;49.600;8.746;2023-09-12T13:57:03;9.15;;;8.15;;
28547;SDS011;68292;49.600;8.746;2023-09-12T13:59:32;8.65;;;7.53;;
28547;SDS011;68292;49.600;8.746;2023-09-12T14:02:11;11.85;;;9.43;;
28547;SDS011;68292;49.600;8.746;2023-09-12T14:04:40;10.93;;;9.70;;
28547;SDS011;68292;49.600;8.746;2023-09-12T14:07:11;10.43;;;9.50;;
28547;SDS011;68292;49.600;8.746;2023-09-12T14:09:41;9.80;;;8.90;;
28547;SDS011;68292;49.600;8.746;2023-09-12T14:12:16;10.85;;;9.75;;
28547;SDS011;68292;49.600;8.746;2023-09-12T14:14:54;10.38;;;8.27;;
28547;SDS011;68292;49.600;8.746;2023-09-12T14:17:33;9.65;;;8.73;;
28547;SDS011;68292;49.600;8.746;2023-09-12T14:20:09;9.25;;;8.25;;
28547;SDS011;68292;49.600;8.746;2023-09-12T14:22:42;10.35;;;9.35;;
28547;SDS011;68292;49.600;8.746;2023-09-12T14:25:15;10.35;;;9.35;;
28547;SDS011;68292;49.600;8.746;2023-09-12T14:27:44;10.35;;;9.40;;
28547;SDS011;68292;49.600;8.746;2023-09-12T14:30:13;10.52;;;8.98;;
28547;SDS011;68292;49.600;8.746;2023-09-12T14:32:42;11.88;;;10.10;;
28547;SDS011;68292;49.600;8.746;2023-09-12T14:35:11;11.30;;;9.55;;
28547;SDS011;68292;49.600;8.746;2023-09-12T14:37:40;9.73;;;8.82;;
28547;SDS011;68292;49.600;8.746;2023-09-12T14:40:09;9.82;;;9.05;;
28547;SDS011;68292;49.600;8.746;2023-09-12T14:42:42;10.32;;;9.38;;
28547;SDS011;68292;49.600;8.746;2023-09-12T14:45:11;9.88;;;8.63;;
28547;SDS011;68292;49.600;8.746;2023-09-12T14:47:41;10.15;;;8.82;;
28547;SDS011;68292;49.600;8.746;2023-09-12T14:50:10;10.40;;;8.73;;
28547;SDS011;68292;49.600;8.746;2023-09-12T14:52:39;10.45;;;9.55;;
28547;SDS011;68292;49.600;8.746;2023-09-12T14:55:08;10.90;;;9.05;;
28547;SDS011;68292;49.600;8.746;2023-09-12T14:57:37;10.02;;;9.02;;
28547;SDS011;68292;49.600;8.746;2023-09-12T15:00:08;9.32;;;8.63;;
28547;SDS011;68292;49.600;8.746;2023-09-12T15:02:38;9.68;;;8.85;;
28547;SDS011;68292;49.600;8.746;2023-09-12T15:05:08;12.02;;;9.50;;